Time;durP1;ratioP1;P1;durP2;ratioP2;P2;SDS_P1;SDS_P2;PMS_P1;PMS_P2;Temp;Humidity;BMP_temperature;BMP_pressure;BME280_temperature;BME280_humidity;BME280_pressure;Samples;Min_cycle;Max_cycle;Signal;HPM_P1;HPM_P2
2023/01/02 00:01:50;;;;;;;11.63;3.72;;;10.90;99.90;;;9.36;100.00;100511.88;5010375;28;20511;-75
2023/01/02 00:04:16;;;;;;;10.18;3.47;;;10.80;99.90;;;9.34;100.00;100508.53;5002222;28;20045;-74
2023/01/02 00:06:41;;;;;;;8.27;3.97;;;10.80;99.90;;;9.30;100.00;100499.09;5006297;28;20117;-75
2023/01/02 00:09:08;;;;;;;10.40;4.32;;;10.70;99.90;;;9.27;100.00;100488.66;4991447;28;20050;-76
2023/01/02 00:11:33;;;;;;;9.68;3.80;;;10.70;99.90;;;9.32;100.00;100486.97;5004389;28;20042;-76
2023/01/02 00:13:59;;;;;;;9.45;4.03;;;10.70;99.90;;;9.35;100.00;100478.38;5010059;28;20045;-76
2023/01/02 00:16:25;;;;;;;8.45;4.00;;;10.70;99.90;;;9.40;100.00;100474.16;5004150;28;20099;-75
2023/01/02 00:18:52;;;;;;;9.68;3.40;;;10.70;99.90;;;9.53;100.00;100478.75;5003591;28;20041;-75
2023/01/02 00:21:18;;;;;;;7.43;3.22;;;10.80;99.90;;;9.48;100.00;100471.22;5008152;28;20046;-76
2023/01/02 00:23:44;;;;;;;9.52;3.58;;;10.80;99.90;;;9.47;100.00;100467.66;4995001;28;20367;-76
2023/01/02 00:26:10;;;;;;;11.23;3.92;;;10.80;99.90;;;9.46;100.00;100462.41;5003611;28;20076;-76
2023/01/02 00:28:37;;;;;;;13.73;3.78;;;10.80;99.90;;;9.44;100.00;100453.63;4992594;28;20464;-75
2023/01/02 00:31:12;;;;;;;8.90;3.70;;;10.80;99.90;;;9.50;100.00;100455.50;5009262;28;20378;-75
2023/01/02 00:33:38;;;;;;;10.98;3.60;;;10.90;99.90;;;9.51;100.00;100457.16;5009960;28;20036;-75
2023/01/02 00:36:12;;;;;;;10.20;3.38;;;10.90;99.90;;;9.54;100.00;100442.28;5010314;28;20033;-76
2023/01/02 00:38:39;;;;;;;9.48;3.20;;;10.90;99.90;;;9.58;100.00;100436.22;5010184;28;20038;-75
2023/01/02 00:41:06;;;;;;;7.80;3.10;;;10.90;99.90;;;9.59;100.00;100424.25;5009646;28;20045;-75
2023/01/02 00:43:32;;;;;;;8.77;3.05;;;10.90;99.90;;;9.67;100.00;100414.97;5005559;28;20125;-73
2023/01/02 00:45:58;;;;;;;9.48;3.25;;;11.00;99.90;;;9.75;100.00;100406.59;5000890;28;20117;-74
2023/01/02 00:48:23;;;;;;;8.75;2.90;;;11.00;99.90;;;9.83;100.00;100402.78;5004259;28;20049;-74
2023/01/02 00:50:49;;;;;;;9.52;3.55;;;11.10;99.90;;;9.83;100.00;100380.97;5001134;28;20092;-74
2023/01/02 00:53:16;;;;;;;8.38;3.17;;;11.20;99.90;;;9.83;100.00;100380.97;5003710;28;20042;-74
2023/01/02 00:55:45;;;;;;;8.07;3.00;;;11.20;99.90;;;9.96;100.00;100390.97;5004598;28;20030;-74
2023/01/02 00:58:12;;;;;;;11.13;3.10;;;11.30;99.90;;;9.99;100.00;100392.41;5009962;28;20056;-74
2023/01/02 01:00:38;;;;;;;9.82;3.20;;;11.40;99.90;;;10.10;100.00;100393.59;5004271;28;20056;-74
2023/01/02 01:03:04;;;;;;;8.65;3.08;;;11.40;99.90;;;10.07;100.00;100383.94;5002086;28;20042;-74
2023/01/02 01:05:29;;;;;;;6.93;3.47;;;11.50;99.90;;;10.28;100.00;100387.38;5005413;28;20089;-74
2023/01/02 01:07:56;;;;;;;7.68;2.67;;;11.60;99.90;;;10.42;100.00;100371.78;5004217;28;20045;-74
2023/01/02 01:10:24;;;;;;;8.45;3.05;;;11.70;99.90;;;10.50;100.00;100368.78;5005908;28;20050;-74
2023/01/02 01:12:50;;;;;;;10.27;2.88;;;11.80;99.90;;;10.56;100.00;100377.94;5009277;28;20034;-75
2023/01/02 01:15:17;;;;;;;7.15;2.88;;;11.80;99.90;;;10.67;100.00;100374.50;5007666;28;20061;-74
2023/01/02 01:17:43;;;;;;;10.30;2.95;;;11.90;99.90;;;10.71;100.00;100377.59;5009057;28;20113;-74
2023/01/02 01:20:10;;;;;;;11.13;3.17;;;12.00;99.90;;;10.72;100.00;100371.94;5015734;28;20048;-74
2023/01/02 01:22:35;;;;;;;7.90;2.60;;;12.00;99.90;;;10.66;100.00;100370.13;4990429;28;20065;-74
2023/01/02 01:25:01;;;;;;;9.60;2.90;;;12.00;99.90;;;10.60;100.00;100380.03;5005758;28;20037;-74
2023/01/02 01:27:27;;;;;;;13.75;3.15;;;11.90;99.90;;;10.53;100.00;100372.94;5009464;28;20151;-74
2023/01/02 01:29:52;;;;;;;7.60;2.80;;;11.90;99.90;;;10.50;100.00;100369.63;4996512;28;20042;-74
2023/01/02 01:32:18;;;;;;;13.05;3.17;;;11.80;99.90;;;10.49;100.00;100362.50;5005662;28;20446;-74
2023/01/02 01:34:44;;;;;;;10.02;3.13;;;11.80;99.90;;;10.52;100.00;100357.63;5009596;28;20125;-74
2023/01/02 01:37:11;;;;;;;9.60;3.05;;;11.80;99.90;;;10.55;100.00;100362.66;5000624;28;20091;-74
2023/01/02 01:39:37;;;;;;;11.20;3.10;;;11.80;99.90;;;10.54;100.00;100355.53;5008965;28;20046;-74
2023/01/02 01:42:03;;;;;;;7.03;2.45;;;11.90;99.90;;;10.56;100.00;100364.31;5009389;28;20104;-74
2023/01/02 01:44:53;;;;;;;9.02;2.92;;;11.90;99.90;;;10.54;100.00;100367.28;5007469;28;20148;-74
2023/01/02 01:47:39;;;;;;;8.35;2.97;;;11.90;99.90;;;10.46;100.00;100360.22;5000314;28;20041;-74
2023/01/02 01:50:17;;;;;;;9.00;3.40;;;11.90;99.90;;;10.42;100.00;100363.59;5011965;28;20042;-74
2023/01/02 01:52:57;;;;;;;10.65;3.38;;;11.80;99.90;;;10.44;100.00;100358.75;5008666;28;20061;-75
2023/01/02 01:55:32;;;;;;;6.45;2.50;;;11.80;99.90;;;10.53;100.00;100359.31;5003215;28;20164;-74
2023/01/02 01:58:04;;;;;;;9.20;2.72;;;11.90;99.90;;;10.59;100.00;100366.59;5002105;28;20069;-74
2023/01/02 02:00:31;;;;;;;9.10;2.45;;;11.90;99.90;;;10.67;100.00;100360.88;5011205;28;20922;-74
2023/01/02 02:03:05;;;;;;;6.38;2.30;;;12.00;99.90;;;10.74;100.00;100368.97;5012093;28;20030;-74
2023/01/02 02:05:32;;;;;;;10.75;3.00;;;12.10;99.90;;;10.79;100.00;100360.97;5000718;28;20092;-74
2023/01/02 02:08:26;;;;;;;8.25;2.35;;;12.20;99.90;;;10.96;100.00;100358.47;5006470;28;20030;-74
2023/01/02 02:10:54;;;;;;;8.73;2.90;;;12.30;99.90;;;11.08;99.13;100345.72;5005547;28;20112;-75
2023/01/02 02:13:20;;;;;;;6.75;2.30;;;12.40;99.90;;;11.26;96.69;100345.94;5010469;28;20037;-75
2023/01/02 02:16:06;;;;;;;9.05;2.47;;;12.60;99.90;;;11.39;94.47;100339.47;5004262;28;20042;-74
2023/01/02 02:19:20;;;;;;;7.68;2.72;;;12.70;99.90;;;11.41;93.80;100345.56;5007945;28;20037;-75
2023/01/02 02:22:21;;;;;;;10.35;2.67;;;12.70;99.90;;;11.36;92.51;100327.13;5004636;28;20073;-75
2023/01/02 02:25:17;;;;;;;7.28;2.60;;;12.80;99.90;;;11.50;92.05;100334.06;5006272;28;20034;-75
2023/01/02 02:28:03;;;;;;;8.88;2.65;;;12.80;99.90;;;11.65;89.93;100335.56;5007601;28;20037;-75
2023/01/02 02:30:40;;;;;;;11.52;2.30;;;12.90;99.90;;;11.73;88.07;100312.56;5010493;28;20486;-75
2023/01/02 02:33:52;;;;;;;7.90;3.58;;;13.00;99.90;;;11.75;88.45;100316.72;4993410;28;20044;-75
2023/01/02 02:36:34;;;;;;;8.18;2.30;;;13.10;99.90;;;11.83;87.44;100312.00;5001868;28;20061;-75
2023/01/02 02:39:11;;;;;;;8.10;2.33;;;13.10;99.90;;;11.86;87.12;100308.81;5001320;28;20373;-75
2023/01/02 02:42:04;;;;;;;9.85;2.30;;;13.20;99.90;;;11.83;87.75;100306.53;4997367;28;20048;-75
2023/01/02 02:44:58;;;;;;;6.43;2.20;;;13.20;99.90;;;11.88;87.14;100323.88;5009711;28;20112;-75
2023/01/02 02:47:59;;;;;;;7.28;2.42;;;13.20;99.90;;;11.97;85.07;100304.44;4993511;28;20112;-75
2023/01/02 02:50:41;;;;;;;8.20;2.95;;;13.30;99.90;;;12.00;85.19;100298.50;5000141;28;20037;-75
2023/01/02 02:53:34;;;;;;;7.55;2.38;;;13.30;99.90;;;12.03;84.16;100274.25;4998790;28;20038;-74
2023/01/02 02:56:06;;;;;;;8.52;2.50;;;13.30;99.90;;;12.04;84.07;100277.84;5003100;28;20037;-75
2023/01/02 02:58:34;;;;;;;8.15;2.83;;;13.40;99.90;;;12.06;83.61;100281.16;5003584;28;20042;-75
2023/01/02 03:01:06;;;;;;;7.63;2.35;;;13.40;99.90;;;12.18;82.14;100276.53;4995866;28;20034;-75
2023/01/02 03:03:33;;;;;;;7.13;2.58;;;13.50;99.90;;;12.28;81.36;100275.13;5011817;28;20496;-76
2023/01/02 03:06:16;;;;;;;12.07;2.92;;;13.60;99.90;;;12.22;82.60;100279.63;5005138;28;20114;-75
2023/01/02 03:09:27;;;;;;;7.75;2.35;;;13.50;99.90;;;12.18;81.96;100268.31;5009189;28;20034;-75
2023/01/02 03:12:23;;;;;;;9.52;2.35;;;13.50;99.90;;;12.21;82.17;100280.69;4994516;28;20136;-75
2023/01/02 03:15:17;;;;;;;7.88;2.58;;;13.50;99.90;;;12.21;82.33;100281.56;5003584;28;20042;-76
2023/01/02 03:18:07;;;;;;;7.25;2.20;;;13.60;99.90;;;12.25;82.05;100286.53;5011146;28;20390;-76
2023/01/02 03:20:43;;;;;;;11.30;3.10;;;13.60;99.90;;;12.30;81.07;100279.28;5002281;28;20030;-75
2023/01/02 03:23:22;;;;;;;8.95;2.67;;;13.60;99.90;;;12.45;79.76;100272.50;5007344;28;20045;-76
2023/01/02 03:25:48;;;;;;;7.65;2.42;;;13.70;99.90;;;12.42;80.25;100290.22;5013913;28;20494;-76
2023/01/02 03:28:21;;;;;;;11.20;2.60;;;13.70;99.90;;;12.44;80.05;100279.88;5001026;28;20128;-75
2023/01/02 03:30:53;;;;;;;5.90;2.13;;;13.70;99.90;;;12.53;79.06;100285.81;5009647;28;20124;-75
2023/01/02 03:33:29;;;;;;;8.82;2.42;;;13.80;99.90;;;12.56;79.31;100293.53;4995678;28;20037;-75
2023/01/02 03:36:02;;;;;;;9.82;2.53;;;13.90;99.90;;;12.64;78.83;100292.34;4993592;28;20053;-76
2023/01/02 03:38:40;;;;;;;8.52;2.63;;;13.90;99.90;;;12.59;80.57;100284.84;5003942;28;20041;-76
2023/01/02 03:41:26;;;;;;;8.05;2.42;;;13.90;99.90;;;12.57;79.59;100291.66;4981564;28;20035;-75
2023/01/02 03:43:55;;;;;;;8.18;3.35;;;13.90;99.90;;;12.60;79.40;100302.97;5022799;28;20406;-75
2023/01/02 03:46:39;;;;;;;7.63;2.40;;;13.90;99.90;;;12.56;80.45;100303.66;5010633;28;20057;-75
2023/01/02 03:49:31;;;;;;;7.85;2.47;;;13.90;99.90;;;12.46;80.96;100290.59;5002181;28;20046;-75
2023/01/02 03:51:57;;;;;;;7.13;2.30;;;13.80;99.90;;;12.39;82.92;100300.81;5010982;28;20033;-75
2023/01/02 03:54:25;;;;;;;7.55;2.30;;;13.80;99.90;;;12.42;83.11;100303.91;5006468;28;20069;-76
2023/01/02 03:57:08;;;;;;;5.72;2.22;;;13.70;99.90;;;12.28;84.94;100306.03;5010865;28;20133;-75
2023/01/02 04:00:02;;;;;;;10.27;2.42;;;13.60;99.90;;;12.16;85.63;100306.00;4998649;28;20088;-75
2023/01/02 04:02:45;;;;;;;6.72;2.50;;;13.50;99.90;;;12.15;86.30;100309.81;5003059;28;20100;-75
2023/01/02 04:05:29;;;;;;;5.40;2.42;;;13.50;99.90;;;12.17;85.34;100310.41;5012749;28;20481;-75
2023/01/02 04:08:12;;;;;;;9.45;2.38;;;13.40;99.90;;;12.19;85.31;100302.00;5010417;28;20113;-74
2023/01/02 04:10:42;;;;;;;8.02;2.75;;;13.40;99.90;;;12.28;83.29;100295.09;5006099;28;20038;-75
2023/01/02 04:13:17;;;;;;;7.03;2.60;;;13.50;99.90;;;12.33;82.30;100305.31;5006127;28;20040;-76
2023/01/02 04:15:48;;;;;;;11.07;2.85;;;13.60;99.90;;;12.37;82.05;100293.69;5010930;28;20033;-76
2023/01/02 04:18:32;;;;;;;6.53;2.30;;;13.70;99.90;;;12.44;81.07;100293.53;4994798;28;20041;-76
2023/01/02 04:21:08;;;;;;;7.55;2.80;;;13.70;99.90;;;12.51;80.17;100298.91;5007355;28;20488;-76
2023/01/02 04:23:40;;;;;;;9.13;2.47;;;13.70;99.90;;;12.44;80.39;100288.06;5005164;28;20037;-76
2023/01/02 04:26:32;;;;;;;10.90;2.50;;;13.70;99.90;;;12.42;80.65;100281.19;5003589;28;20551;-76
2023/01/02 04:28:58;;;;;;;8.35;2.50;;;13.70;99.90;;;12.44;79.80;100282.59;5008562;28;20046;-76
2023/01/02 04:31:52;;;;;;;8.90;2.78;;;13.70;99.90;;;12.36;80.38;100282.97;5004648;28;20385;-76
2023/01/02 04:34:20;;;;;;;7.72;2.47;;;13.70;99.90;;;12.36;79.95;100288.44;4998096;28;20517;-76
2023/01/02 04:36:46;;;;;;;;;;;13.70;99.90;;;12.28;79.80;100281.41;5010356;28;20045;-76
2023/01/02 04:39:11;;;;;;;7.43;2.17;;;13.70;99.90;;;12.29;80.56;100298.66;5008927;28;19921;-76
2023/01/02 04:41:39;;;;;;;7.25;2.53;;;13.60;99.90;;;12.25;81.21;100301.03;5000297;28;20042;-76
2023/01/02 04:44:05;;;;;;;9.70;2.28;;;13.60;99.90;;;12.23;80.65;100303.19;5003096;28;20048;-75
2023/01/02 04:46:30;;;;;;;9.13;2.63;;;13.60;99.90;;;12.28;79.98;100307.94;5004626;28;20046;-76
2023/01/02 04:48:56;;;;;;;7.28;2.38;;;13.60;99.90;;;12.36;79.75;100324.84;5001099;28;20085;-76
2023/01/02 04:51:23;;;;;;;7.53;2.58;;;13.60;99.90;;;12.50;78.43;100311.78;5006154;28;20088;-76
2023/01/02 04:53:50;;;;;;;10.73;4.00;;;13.80;99.90;;;12.55;78.19;100302.00;5009551;28;20046;-76
2023/01/02 04:56:17;;;;;;;5.82;2.15;;;13.80;99.90;;;12.55;77.55;100293.81;5004263;28;20042;-76
2023/01/02 04:58:44;;;;;;;8.32;2.35;;;13.90;99.90;;;12.63;77.62;100302.50;5016215;28;20401;-76
2023/01/02 05:01:14;;;;;;;12.95;2.60;;;13.90;99.90;;;12.63;77.67;100307.09;4995043;28;20050;-76
2023/01/02 05:03:43;;;;;;;8.75;2.20;;;13.90;99.90;;;12.65;77.31;100294.03;4991129;28;20478;-76
2023/01/02 05:06:09;;;;;;;7.55;2.20;;;14.00;99.90;;;12.63;78.16;100296.16;5008179;28;20042;-76
2023/01/02 05:08:36;;;;;;;6.15;2.08;;;13.90;99.90;;;12.62;77.76;100297.25;5009973;28;20038;-76
2023/01/02 05:11:13;;;;;;;7.15;2.53;;;13.90;99.90;;;12.65;77.61;100297.59;5002843;28;20035;-76
2023/01/02 05:13:39;;;;;;;6.88;2.33;;;13.90;99.90;;;12.66;77.55;100291.06;5010084;28;20044;-76
2023/01/02 05:16:06;;;;;;;6.03;2.33;;;14.00;99.90;;;12.70;77.52;100291.38;5009480;28;20453;-75
2023/01/02 05:18:31;;;;;;;5.97;2.35;;;14.00;99.90;;;12.72;77.04;100313.88;5001811;28;20402;-75
2023/01/02 05:23:57;;;;;;;10.13;2.55;;;14.10;99.90;;;12.57;81.61;100319.84;5011942;28;20034;-76
2023/01/02 05:26:23;;;;;;;6.90;2.38;;;13.90;99.90;;;12.26;86.18;100324.59;5020427;28;20045;-76
2023/01/02 05:28:52;;;;;;;9.05;2.38;;;13.60;99.90;;;12.11;86.45;100316.84;5003637;28;20050;-75
2023/01/02 05:31:18;;;;;;;10.45;3.13;;;13.40;99.90;;;12.04;87.26;100321.59;5010827;28;20460;-75
2023/01/02 05:33:43;;;;;;;6.30;2.13;;;13.30;99.90;;;12.09;85.60;100313.50;5003071;28;20073;-76
2023/01/02 05:36:09;;;;;;;8.02;2.75;;;13.40;99.90;;;12.14;84.89;100310.88;5001568;28;20085;-76
2023/01/02 05:38:36;;;;;;;7.28;2.83;;;13.40;99.90;;;12.22;82.80;100310.56;5008431;28;20045;-75
2023/01/02 05:41:06;;;;;;;8.15;2.78;;;13.50;99.90;;;12.25;82.61;100303.78;5005055;28;20133;-75
2023/01/02 05:43:35;;;;;;;8.38;2.53;;;13.50;99.90;;;12.30;81.91;100297.59;4997691;28;20050;-75
2023/01/02 05:46:26;;;;;;;8.90;2.92;;;13.50;99.90;;;12.35;80.44;100304.03;5006286;28;20044;-76
2023/01/02 05:48:52;;;;;;;7.18;2.60;;;13.70;99.90;;;12.37;80.12;100298.31;4999998;28;20097;-76
2023/01/02 05:51:19;;;;;;;6.20;2.83;;;13.70;99.90;;;12.45;80.13;100308.88;5009767;28;20034;-75
2023/01/02 05:53:45;;;;;;;9.15;2.70;;;13.70;99.90;;;12.57;78.64;100311.63;5011714;28;20069;-76
2023/01/02 05:56:14;;;;;;;9.27;2.40;;;13.80;99.90;;;12.61;78.62;100312.00;5009671;28;20065;-76
2023/01/02 05:58:45;;;;;;;11.43;3.53;;;13.90;99.90;;;12.62;77.79;100317.25;5012385;28;20034;-76
2023/01/02 06:01:15;;;;;;;4.80;2.17;;;13.90;99.90;;;12.70;77.30;100312.47;5012351;28;20042;-76
2023/01/02 06:03:49;;;;;;;8.52;2.47;;;14.00;99.90;;;12.76;77.23;100315.09;5012717;28;20481;-76
2023/01/02 06:06:18;;;;;;;8.82;2.53;;;14.00;99.90;;;12.74;77.39;100311.75;5012878;28;20046;-75
2023/01/02 06:08:44;;;;;;;8.93;2.40;;;14.00;99.90;;;12.66;78.75;100307.47;4994554;28;20440;-74
2023/01/02 06:11:10;;;;;;;8.07;2.25;;;14.00;99.90;;;12.64;78.51;100298.69;5012050;28;20154;-75
2023/01/02 06:13:37;;;;;;;6.57;2.75;;;13.90;99.90;;;12.65;77.95;100304.97;5008955;28;20077;-75
2023/01/02 06:16:07;;;;;;;9.07;2.40;;;13.90;99.90;;;12.58;78.64;100321.50;4994320;28;20042;-75
2023/01/02 06:18:36;;;;;;;7.00;2.25;;;13.90;99.90;;;12.56;78.99;100307.22;5010139;28;20034;-75
2023/01/02 06:21:05;;;;;;;6.25;2.30;;;13.90;99.90;;;12.47;79.80;100314.97;5011149;28;20474;-75
2023/01/02 06:23:31;;;;;;;10.05;2.85;;;13.80;99.90;;;12.50;79.14;100305.44;5002807;28;20041;-75
2023/01/02 06:26:10;;;;;;;7.75;2.47;;;13.80;99.90;;;12.48;79.31;100305.69;5012152;28;20109;-75
2023/01/02 06:28:37;;;;;;;;;;;13.80;99.90;;;12.51;78.69;100310.69;5009597;28;20498;-76
2023/01/02 06:31:11;;;;;;;7.25;2.08;;;13.80;99.90;;;12.58;78.67;100317.94;5004467;28;19917;-75
2023/01/02 06:33:37;;;;;;;5.70;2.42;;;13.90;99.90;;;12.59;79.32;100316.88;5007060;28;20049;-75
2023/01/02 06:36:07;;;;;;;7.53;3.00;;;13.90;99.90;;;12.66;77.92;100309.38;5005260;28;20165;-75
2023/01/02 06:38:33;;;;;;;9.52;2.42;;;14.00;99.90;;;12.76;77.29;100300.56;5007163;28;20076;-75
2023/01/02 06:41:01;;;;;;;6.28;2.00;;;14.00;99.90;;;12.88;75.65;100295.06;5012255;28;20125;-75
2023/01/02 06:43:29;;;;;;;6.53;2.05;;;14.20;99.90;;;12.91;75.72;100302.78;5007708;28;20046;-75
2023/01/02 06:46:03;;;;;;;7.72;2.20;;;14.20;99.90;;;12.94;75.60;100305.03;5010983;28;20453;-76
2023/01/02 06:48:32;;;;;;;4.75;1.73;;;14.20;99.90;;;12.93;75.77;100290.53;5013949;28;20430;-75
2023/01/02 06:51:00;;;;;;;7.40;2.10;;;14.30;99.90;;;12.99;75.57;100313.38;5007063;28;20589;-75
2023/01/02 06:53:27;;;;;;;8.25;2.58;;;14.30;99.90;;;13.04;75.43;100313.50;5009731;28;20046;-75
2023/01/02 06:55:57;;;;;;;7.55;2.60;;;14.40;99.90;;;13.01;75.44;100304.91;5003124;28;20034;-77
2023/01/02 06:58:27;;;;;;;5.40;1.92;;;14.40;99.90;;;13.05;75.42;100293.25;5006357;28;20042;-75
2023/01/02 07:00:53;;;;;;;9.07;2.03;;;14.40;99.90;;;13.13;74.93;100345.97;5001439;28;20485;-75
2023/01/02 07:03:18;;;;;;;5.43;2.05;;;14.40;99.90;;;13.11;75.32;100326.22;5004917;28;20103;-75
2023/01/02 07:05:45;;;;;;;7.50;2.63;;;14.40;99.90;;;13.09;76.10;100318.22;5003983;28;20038;-75
2023/01/02 07:08:12;;;;;;;8.23;1.90;;;14.40;99.90;;;13.09;75.89;100332.75;5009820;28;20033;-74
2023/01/02 07:10:38;;;;;;;6.13;1.93;;;14.40;99.90;;;13.12;75.87;100341.56;5011795;28;20037;-75
2023/01/02 07:13:04;;;;;;;8.20;2.50;;;14.40;99.90;;;13.18;75.76;100335.13;5006313;28;20144;-76
2023/01/02 07:15:31;;;;;;;8.73;2.17;;;14.50;99.90;;;13.15;76.32;100341.94;5008553;28;20046;-75
2023/01/02 07:17:56;;;;;;;7.05;1.80;;;14.40;99.90;;;13.11;76.16;100339.91;5006182;28;20368;-76
2023/01/02 07:20:22;;;;;;;7.30;1.70;;;14.40;99.90;;;13.14;75.91;100333.94;5004033;28;20183;-75
2023/01/02 07:22:52;;;;;;;10.02;2.42;;;14.40;99.90;;;13.09;76.81;100321.81;4997447;28;20057;-76
2023/01/02 07:25:20;;;;;;;6.82;1.98;;;14.40;99.90;;;13.12;76.45;100336.09;4994894;28;20117;-76
2023/01/02 07:27:46;;;;;;;6.10;1.75;;;14.40;99.90;;;13.09;76.54;100332.75;5010708;28;20141;-76
2023/01/02 07:30:13;;;;;;;7.60;2.00;;;14.40;99.90;;;13.07;76.72;100347.75;5009676;28;20050;-76
2023/01/02 07:32:39;;;;;;;7.32;1.98;;;14.40;99.90;;;13.05;76.90;100364.44;5007141;28;20057;-75
2023/01/02 07:35:06;;;;;;;9.30;2.05;;;14.40;99.90;;;13.05;76.88;100358.13;5016226;28;20382;-75
2023/01/02 07:37:31;;;;;;;5.00;1.63;;;14.40;99.90;;;13.05;77.21;100358.97;4999131;28;20044;-75
2023/01/02 07:39:57;;;;;;;7.15;1.90;;;14.30;99.90;;;13.03;77.26;100352.91;5011383;28;20967;-75
2023/01/02 07:42:23;;;;;;;4.95;2.10;;;14.30;99.90;;;13.03;76.90;100377.56;5003817;28;20040;-75
2023/01/02 07:44:49;;;;;;;7.50;2.30;;;14.30;99.90;;;12.97;77.88;100351.09;5031111;28;20473;-76
2023/01/02 07:47:14;;;;;;;8.63;1.92;;;14.30;99.90;;;12.93;77.88;100347.19;5018908;28;20382;-76
2023/01/02 07:49:40;;;;;;;6.28;1.90;;;14.20;99.90;;;12.91;78.12;100368.50;4985196;28;20034;-77
2023/01/02 07:52:10;;;;;;;10.02;2.20;;;14.20;99.90;;;12.90;78.30;100366.84;5000720;28;20410;-75
2023/01/02 07:54:36;;;;;;;5.13;1.85;;;14.20;99.90;;;12.91;77.67;100341.13;5012398;28;20044;-74
2023/01/02 07:57:02;;;;;;;4.88;2.00;;;14.20;99.90;;;12.90;77.89;100348.53;5001815;28;20422;-74
2023/01/02 07:59:28;;;;;;;7.82;1.90;;;14.20;99.90;;;12.81;79.01;100341.72;5009676;28;20030;-74
2023/01/02 08:01:54;;;;;;;8.05;2.13;;;14.20;99.90;;;12.86;78.48;100355.50;5004962;28;20103;-75
2023/01/02 08:04:19;;;;;;;6.55;2.67;;;14.10;99.90;;;12.90;78.12;100347.66;5005937;28;20121;-75
2023/01/02 08:06:45;;;;;;;7.60;1.85;;;14.20;99.90;;;12.95;77.61;100372.41;5011296;28;20049;-76
2023/01/02 08:09:11;;;;;;;6.57;2.30;;;14.20;99.90;;;12.89;78.13;100349.59;5006270;28;20048;-74
2023/01/02 08:11:36;;;;;;;9.65;2.20;;;14.20;99.90;;;12.90;77.92;100345.78;5007635;28;20026;-75
2023/01/02 08:14:02;;;;;;;5.90;1.75;;;14.20;99.90;;;12.88;78.23;100349.81;4994315;28;20033;-75
2023/01/02 08:16:28;;;;;;;10.20;2.13;;;14.20;99.90;;;12.89;78.01;100346.00;4994494;28;20038;-75
2023/01/02 08:18:54;;;;;;;6.90;1.88;;;14.20;99.90;;;12.88;77.85;100342.44;4993077;28;20042;-75
2023/01/02 08:21:23;;;;;;;6.93;1.73;;;14.20;99.90;;;12.85;77.85;100355.78;4994817;28;20571;-76
2023/01/02 08:23:48;;;;;;;7.20;2.33;;;14.20;99.90;;;12.88;77.68;100350.66;5008270;28;20354;-76
2023/01/02 08:26:14;;;;;;;4.90;1.90;;;14.20;99.90;;;12.92;76.96;100351.84;5006333;28;20032;-76
2023/01/02 08:28:41;;;;;;;7.30;2.00;;;14.20;99.90;;;12.93;76.67;100338.97;5011240;28;20042;-75
2023/01/02 08:31:14;;;;;;;6.83;2.03;;;14.20;99.90;;;12.97;76.47;100361.25;4997694;28;20169;-77
2023/01/02 08:33:40;;;;;;;6.47;1.80;;;14.30;99.90;;;12.87;77.69;100343.53;4995935;28;20286;-75
2023/01/02 08:36:06;;;;;;;7.05;1.95;;;14.20;99.90;;;12.92;76.75;100337.31;5009970;28;20678;-75
2023/01/02 08:38:32;;;;;;;5.30;1.70;;;14.20;99.90;;;12.88;77.50;100341.59;5006739;28;20043;-75
2023/01/02 08:40:58;;;;;;;7.65;1.98;;;14.20;99.90;;;12.92;76.57;100368.28;5011064;28;20053;-74
2023/01/02 08:43:25;;;;;;;6.55;1.92;;;14.20;99.90;;;12.95;76.56;100370.53;5009451;28;20129;-74
2023/01/02 08:45:52;;;;;;;10.43;2.30;;;14.30;99.90;;;12.93;77.22;100366.34;4999610;28;22326;-75
2023/01/02 08:48:17;;;;;;;6.05;2.00;;;14.20;99.90;;;12.92;77.18;100370.16;5001910;28;20500;-75
2023/01/02 08:50:43;;;;;;;6.00;2.10;;;14.20;99.90;;;12.88;76.79;100364.34;4993833;28;20030;-73
2023/01/02 08:53:09;;;;;;;9.15;2.15;;;14.20;99.90;;;12.88;77.12;100378.03;5004527;28;20042;-75
2023/01/02 08:55:34;;;;;;;6.85;2.15;;;14.20;99.90;;;12.91;77.21;100365.75;5010011;28;20375;-74
2023/01/02 08:58:00;;;;;;;8.27;2.25;;;14.20;99.90;;;12.93;76.87;100364.47;5014996;28;20040;-74
2023/01/02 09:00:26;;;;;;;11.20;2.55;;;14.20;99.90;;;13.05;75.90;100364.44;5012729;28;20124;-75
2023/01/02 09:02:52;;;;;;;7.93;2.13;;;14.40;99.90;;;13.08;75.12;100368.59;5011743;28;20095;-77
2023/01/02 09:05:17;;;;;;;5.70;2.10;;;14.40;99.90;;;13.17;74.71;100405.50;5013180;28;20084;-74
2023/01/02 09:07:43;;;;;;;6.00;1.63;;;14.50;99.90;;;13.19;74.67;100391.56;5012596;28;20057;-74
2023/01/02 09:10:10;;;;;;;5.60;1.73;;;14.50;99.90;;;13.24;74.37;100399.88;5012157;28;20052;-74
2023/01/02 09:12:36;;;;;;;5.05;1.83;;;14.50;99.90;;;13.25;74.60;100382.38;5009276;28;20041;-75
2023/01/02 09:15:03;;;;;;;6.65;1.70;;;14.60;99.90;;;13.24;74.79;100373.34;5004502;28;20080;-75
2023/01/02 09:17:29;;;;;;;6.03;1.90;;;14.60;99.90;;;13.25;75.18;100379.63;4994947;28;20070;-76
2023/01/02 09:19:54;;;;;;;8.10;1.88;;;14.60;99.90;;;13.31;73.61;100399.75;5009865;28;20049;-75
2023/01/02 09:22:20;;;;;;;6.30;2.00;;;14.60;99.90;;;13.35;73.39;100374.41;5013152;28;20034;-75
2023/01/02 09:24:46;;;;;;;7.38;1.95;;;14.70;99.90;;;13.34;72.98;100348.06;5010194;28;20087;-75
2023/01/02 09:27:12;;;;;;;6.40;1.83;;;14.70;99.90;;;13.40;74.49;100383.78;5025953;28;20049;-75
2023/01/02 09:29:37;;;;;;;6.35;1.63;;;14.70;99.90;;;13.44;72.82;100385.00;4997388;28;20049;-72
2023/01/02 09:32:03;;;;;;;5.50;1.90;;;14.70;99.90;;;13.46;72.75;100397.41;5024253;28;20038;-75
2023/01/02 09:34:29;;;;;;;5.65;1.63;;;14.80;99.90;;;13.46;72.30;100400.13;5012578;28;20034;-74
2023/01/02 09:36:55;;;;;;;5.90;1.77;;;14.80;99.90;;;13.36;73.22;100373.31;5011041;28;20049;-75
2023/01/02 09:39:20;;;;;;;7.13;1.60;;;14.70;99.90;;;13.32;73.94;100421.44;5009555;28;20518;-75
2023/01/02 09:41:52;;;;;;;7.13;1.60;;;14.70;99.90;;;13.25;74.42;100431.69;5007655;28;20057;-75
2023/01/02 09:44:40;;;;;;;4.47;1.45;;;14.60;99.90;;;13.21;74.84;100406.69;5011042;28;20121;-75
2023/01/02 09:47:18;;;;;;;7.05;2.00;;;14.60;99.90;;;13.20;74.87;100415.13;5011306;28;20049;-76
2023/01/02 09:49:50;;;;;;;6.22;1.85;;;14.60;99.90;;;13.31;74.20;100435.38;5009525;28;20085;-76
2023/01/02 09:52:24;;;;;;;6.05;1.83;;;14.60;99.90;;;13.35;72.95;100433.81;5011950;28;20120;-74
2023/01/02 09:54:50;;;;;;;7.68;2.05;;;14.60;99.90;;;13.37;73.36;100424.28;5022506;28;20038;-74
2023/01/02 09:57:28;;;;;;;5.25;2.08;;;14.70;99.90;;;13.47;72.78;100417.38;5012529;28;20138;-74
2023/01/02 10:00:17;;;;;;;5.43;1.67;;;14.70;99.90;;;13.79;70.96;100403.22;4994251;28;20034;-74
2023/01/02 10:03:04;;;;;;;;;;;15.00;99.90;;;14.04;68.96;100418.50;5003639;28;20026;-74
2023/01/02 10:06:00;;;;;;;4.40;1.40;;;15.20;99.90;;;13.85;68.76;100415.97;4997445;28;19948;-75
2023/01/02 10:08:58;;;;;;;4.85;1.42;;;15.30;99.90;;;13.80;69.67;100419.44;5003111;28;20049;-75
2023/01/02 10:12:02;;;;;;;6.43;1.83;;;15.20;99.90;;;13.50;71.97;100434.19;5008522;28;20042;-74
2023/01/02 10:14:45;;;;;;;4.95;1.45;;;14.90;99.90;;;13.40;72.09;100452.28;5007645;28;20041;-75
2023/01/02 10:17:14;;;;;;;5.32;1.63;;;14.80;99.90;;;13.38;71.70;100455.25;5008462;28;20107;-74
2023/01/02 10:20:01;;;;;;;7.07;1.85;;;14.70;99.90;;;13.36;71.86;100462.88;5011866;28;20041;-74
2023/01/02 10:22:40;;;;;;;5.88;1.55;;;14.70;99.90;;;13.31;72.71;100460.88;5000781;28;20088;-74
2023/01/02 10:25:22;;;;;;;5.75;1.50;;;14.60;99.90;;;13.32;71.14;100464.44;5016283;28;20398;-75
2023/01/02 10:28:23;;;;;;;6.45;1.40;;;14.60;99.90;;;13.29;72.36;100464.91;5005503;28;20113;-75
2023/01/02 10:31:00;;;;;;;4.35;1.48;;;14.60;99.90;;;13.28;72.10;100483.28;5012010;28;20030;-75
2023/01/02 10:33:42;;;;;;;5.40;1.40;;;14.60;99.90;;;13.23;72.03;100461.22;5006744;28;20041;-73
2023/01/02 10:36:21;;;;;;;6.18;1.70;;;14.60;99.90;;;13.19;73.26;100466.38;5006334;28;20065;-75